Time;durP1;ratioP1;P1;durP2;ratioP2;P2;SDS_P1;SDS_P2;PMS_P1;PMS_P2;Temp;Humidity;BMP_temperature;BMP_pressure;BME280_temperature;BME280_humidity;BME280_pressure;Samples;Min_cycle;Max_cycle;Signal;HPM_P1;HPM_P2
2023/12/13 00:00:24;;;;;;;64.60;30.30;;;;;;;4.35;97.97;99101.70;111296;1266;23349;-75
2023/12/13 00:03:39;;;;;;;58.20;27.70;;;;;;;4.36;98.01;99098.90;111183;1269;22904;-74
2023/12/13 00:06:31;;;;;;;57.70;26.60;;;;;;;4.38;98.06;99090.77;111282;1266;22086;-73
2023/12/13 00:09:23;;;;;;;60.30;27.40;;;;;;;4.38;98.07;99086.09;111316;1266;22150;-73
2023/12/13 00:12:14;;;;;;;57.00;25.30;;;;;;;4.37;98.11;99084.41;111183;1266;22127;-72
2023/12/13 00:15:07;;;;;;;64.70;31.90;;;;;;;4.37;98.02;99089.33;111187;1266;22121;-76
2023/12/13 00:17:57;;;;;;;60.40;29.40;;;;;;;4.35;98.15;99087.67;111207;1269;22448;-73
2023/12/13 00:20:48;;;;;;;54.40;23.70;;;;;;;4.36;98.21;99090.05;111199;1266;22140;-74
2023/12/13 00:23:40;;;;;;;55.50;25.00;;;;;;;4.36;98.15;99088.80;111195;1266;22140;-73
2023/12/13 00:26:31;;;;;;;55.30;25.80;;;;;;;4.37;98.19;99081.23;111221;1262;22356;-75
2023/12/13 00:29:22;;;;;;;65.30;33.10;;;;;;;4.38;98.21;99073.54;111394;1262;22362;-74
2023/12/13 00:32:13;;;;;;;69.70;31.60;;;;;;;4.41;98.22;99067.52;111363;1268;22266;-75
2023/12/13 00:35:06;;;;;;;59.10;26.10;;;;;;;4.43;98.20;99064.72;111188;1269;22217;-74
2023/12/13 00:37:57;;;;;;;56.10;22.90;;;;;;;4.43;98.02;99063.61;111164;1270;22220;-74
2023/12/13 00:40:48;;;;;;;51.10;22.00;;;;;;;4.43;98.07;99065.42;111197;1269;22274;-73
2023/12/13 00:43:39;;;;;;;52.20;23.20;;;;;;;4.44;98.10;99063.42;111220;1269;22195;-73
2023/12/13 00:46:30;;;;;;;52.90;21.80;;;;;;;4.46;98.23;99059.36;111170;1269;22340;-73
2023/12/13 00:49:21;;;;;;;55.80;25.40;;;;;;;4.48;98.14;99055.27;111197;1266;22144;-73
2023/12/13 00:52:12;;;;;;;54.50;23.40;;;;;;;4.49;98.16;99057.88;111168;1269;22194;-74
2023/12/13 00:55:04;;;;;;;;;;;;;;;4.52;98.18;99053.72;111190;1269;22406;-76
2023/12/13 00:57:55;;;;;;;47.50;20.30;;;;;;;4.53;98.21;99045.55;111183;1269;22124;-73
2023/12/13 01:00:46;;;;;;;53.30;21.80;;;;;;;4.55;98.26;99049.37;111315;1265;22417;-77
2023/12/13 01:03:37;;;;;;;52.00;21.30;;;;;;;4.57;98.15;99051.89;111249;1269;22625;-76
2023/12/13 01:06:28;;;;;;;45.20;21.40;;;;;;;4.59;98.16;99045.55;111167;1269;22264;-75
2023/12/13 01:09:19;;;;;;;49.70;21.00;;;;;;;4.61;98.20;99044.75;111178;1264;22202;-76
2023/12/13 01:12:13;;;;;;;49.30;20.70;;;;;;;4.63;98.10;99041.02;111183;1262;22364;-75
2023/12/13 01:15:04;;;;;;;49.30;22.20;;;;;;;4.66;98.15;99036.36;111266;1268;22168;-73
2023/12/13 01:17:55;;;;;;;61.80;24.50;;;;;;;4.69;98.17;99030.86;111319;1269;22992;-74
2023/12/13 01:20:45;;;;;;;66.00;27.40;;;;;;;4.71;98.21;99030.75;111162;1266;22831;-76
2023/12/13 01:23:37;;;;;;;66.50;26.00;;;;;;;4.72;98.02;99033.79;111194;1269;22312;-74
2023/12/13 01:26:27;;;;;;;56.30;23.40;;;;;;;4.72;98.04;99022.23;111209;1263;22334;-74
2023/12/13 01:29:18;;;;;;;59.70;26.30;;;;;;;4.74;98.07;99023.48;111190;1263;22319;-75
2023/12/13 01:32:10;;;;;;;67.20;26.70;;;;;;;4.76;98.09;99022.85;111220;1267;22914;-75
2023/12/13 01:35:01;;;;;;;61.60;24.30;;;;;;;4.76;98.03;99021.35;111138;1270;22172;-74
2023/12/13 01:37:51;;;;;;;72.40;25.60;;;;;;;4.77;98.03;99015.66;111210;1269;22098;-73
2023/12/13 01:40:51;;;;;;;64.80;26.00;;;;;;;4.79;98.13;99013.94;111174;1269;22149;-74
2023/12/13 01:43:42;;;;;;;53.80;24.40;;;;;;;4.80;98.08;99008.34;111199;1263;23126;-74
2023/12/13 01:46:34;;;;;;;58.30;23.60;;;;;;;4.81;98.00;99004.92;111191;1269;22152;-74
2023/12/13 01:49:25;;;;;;;56.70;21.70;;;;;;;4.81;98.03;99004.20;111197;1266;22537;-74
2023/12/13 01:52:17;;;;;;;56.30;22.20;;;;;;;4.82;97.92;99004.10;111197;1266;22150;-73
2023/12/13 01:55:11;;;;;;;51.20;21.10;;;;;;;4.83;97.90;98997.93;111222;1266;23336;-75
2023/12/13 01:58:04;;;;;;;52.80;23.40;;;;;;;4.84;98.04;98997.26;111164;1266;22181;-74
2023/12/13 02:00:55;;;;;;;55.60;22.80;;;;;;;4.83;97.91;98991.45;111164;1266;22155;-74
2023/12/13 02:03:46;;;;;;;56.90;25.60;;;;;;;4.81;97.98;98994.94;111172;1269;22071;-73
2023/12/13 02:06:38;;;;;;;58.00;26.50;;;;;;;4.83;98.04;98993.42;111181;1266;22356;-76
2023/12/13 02:09:29;;;;;;;67.00;27.00;;;;;;;4.84;98.05;98992.52;111154;1269;22995;-74
2023/12/13 02:12:19;;;;;;;62.10;24.10;;;;;;;4.83;97.97;98995.23;111146;1266;22154;-73
2023/12/13 02:15:12;;;;;;;61.80;25.00;;;;;;;4.81;97.98;99001.27;111216;1269;22399;-75
2023/12/13 02:18:03;;;;;;;62.80;22.60;;;;;;;4.82;98.09;98995.66;111167;1266;22435;-74
2023/12/13 02:20:54;;;;;;;60.20;24.80;;;;;;;4.81;97.96;98987.70;111184;1266;23004;-74
2023/12/13 02:23:47;;;;;;;66.10;26.00;;;;;;;4.78;97.90;98982.77;111176;1269;23188;-76
2023/12/13 02:26:40;;;;;;;62.80;27.30;;;;;;;4.78;98.05;98974.59;111181;1266;22298;-74
2023/12/13 02:29:31;;;;;;;57.10;23.90;;;;;;;4.77;98.02;98976.84;111179;1269;22341;-74
2023/12/13 02:32:22;;;;;;;58.40;23.40;;;;;;;4.75;97.88;98971.72;111161;1264;22160;-74
2023/12/13 02:35:13;;;;;;;52.00;19.30;;;;;;;4.75;97.98;98968.86;111189;1263;22281;-74
2023/12/13 02:38:02;;;;;;;;;;;;;;;4.76;98.00;98967.38;111196;1269;22971;-74
2023/12/13 02:40:54;;;;;;;55.30;21.50;;;;;;;4.77;98.05;98966.88;111113;1270;22184;-75
2023/12/13 02:43:45;;;;;;;64.80;23.50;;;;;;;4.78;98.06;98964.90;111152;1270;22258;-73
2023/12/13 02:46:36;;;;;;;50.70;18.70;;;;;;;4.78;98.04;98959.80;111170;1270;22152;-74
2023/12/13 02:49:27;;;;;;;36.60;15.50;;;;;;;4.78;98.12;98956.45;111221;1269;22324;-75
2023/12/13 02:52:18;;;;;;;42.20;17.60;;;;;;;4.78;98.08;98952.21;111135;1269;23152;-77
2023/12/13 02:55:11;;;;;;;46.20;17.10;;;;;;;4.77;98.08;98951.06;111169;1269;22976;-74
2023/12/13 02:58:02;;;;;;;40.00;15.90;;;;;;;4.76;98.07;98949.32;111194;1269;22167;-73
2023/12/13 03:00:53;;;;;;;41.30;15.70;;;;;;;4.76;98.18;98947.56;111134;1267;22268;-74
2023/12/13 03:03:42;;;;;;;;;;;;;;;4.76;98.15;98947.63;111148;1270;23007;-75
2023/12/13 03:06:33;;;;;;;34.40;14.90;;;;;;;4.75;98.13;98943.13;111121;1269;22415;-74
2023/12/13 03:09:24;;;;;;;45.20;17.70;;;;;;;4.76;98.14;98934.14;111188;1266;23048;-74
2023/12/13 03:12:15;;;;;;;43.10;16.30;;;;;;;4.76;98.05;98935.64;111184;1266;22222;-75
2023/12/13 03:15:08;;;;;;;39.00;15.70;;;;;;;4.74;97.98;98935.81;111197;1266;22381;-73
2023/12/13 03:17:59;;;;;;;41.00;15.70;;;;;;;4.75;98.15;98937.19;111203;1263;22502;-77
2023/12/13 03:20:50;;;;;;;38.90;16.10;;;;;;;4.77;98.15;98928.48;111194;1269;22564;-77
2023/12/13 03:23:41;;;;;;;41.80;15.60;;;;;;;4.78;98.31;98922.21;111128;1266;22254;-74
2023/12/13 03:26:32;;;;;;;37.70;13.60;;;;;;;4.78;98.17;98917.99;111187;1269;22319;-75
2023/12/13 03:29:23;;;;;;;32.40;13.40;;;;;;;4.79;98.25;98905.86;111153;1266;22196;-74
2023/12/13 03:32:14;;;;;;;37.40;14.10;;;;;;;4.79;98.28;98900.79;111220;1269;23062;-73
2023/12/13 03:35:06;;;;;;;45.10;13.80;;;;;;;4.80;98.38;98890.75;111277;1257;22311;-74
2023/12/13 03:37:57;;;;;;;41.20;14.90;;;;;;;4.78;98.06;98889.64;111162;1267;22548;-74
2023/12/13 03:40:48;;;;;;;37.50;14.30;;;;;;;4.77;98.15;98886.01;111187;1266;22232;-73
2023/12/13 03:43:39;;;;;;;39.00;14.20;;;;;;;4.76;98.18;98884.44;111194;1266;22278;-74
2023/12/13 03:46:31;;;;;;;34.80;12.60;;;;;;;4.77;98.04;98882.14;111189;1269;23255;-73
2023/12/13 03:49:22;;;;;;;36.80;14.00;;;;;;;4.77;98.11;98877.00;111160;1264;23220;-73
2023/12/13 03:52:13;;;;;;;36.90;13.50;;;;;;;4.76;98.16;98872.61;111175;1263;23043;-73
2023/12/13 03:55:05;;;;;;;40.20;14.80;;;;;;;4.76;98.35;98873.63;111194;1269;22627;-75
2023/12/13 03:57:56;;;;;;;39.00;13.90;;;;;;;4.77;98.31;98874.80;111139;1270;22122;-74
2023/12/13 04:00:47;;;;;;;38.20;14.50;;;;;;;4.77;98.23;98876.10;111130;1270;22160;-75
2023/12/13 04:03:38;;;;;;;35.60;13.10;;;;;;;4.77;98.28;98871.84;111148;1270;22273;-75
2023/12/13 04:06:29;;;;;;;36.30;14.50;;;;;;;4.78;98.32;98859.77;111222;1264;23016;-75
2023/12/13 04:09:20;;;;;;;39.80;13.20;;;;;;;4.78;98.24;98851.80;111180;1266;22124;-75
2023/12/13 04:12:11;;;;;;;37.70;13.40;;;;;;;4.79;98.37;98854.84;111183;1266;22338;-74
2023/12/13 04:15:02;;;;;;;41.40;13.30;;;;;;;4.78;98.17;98853.36;111203;1267;22323;-74
2023/12/13 04:17:53;;;;;;;35.70;12.60;;;;;;;4.80;98.35;98851.17;111180;1265;22972;-74
2023/12/13 04:20:44;;;;;;;34.90;12.90;;;;;;;4.80;98.34;98848.78;111200;1264;22328;-77
2023/12/13 04:23:33;;;;;;;;;;;;;;;4.80;98.11;98850.03;111228;1262;22423;-74
2023/12/13 04:26:24;;;;;;;36.80;12.10;;;;;;;4.78;98.08;98847.47;111173;1269;23001;-73
2023/12/13 04:29:15;;;;;;;37.30;11.90;;;;;;;4.77;98.16;98851.61;111195;1267;22240;-74
2023/12/13 04:32:06;;;;;;;34.20;12.50;;;;;;;4.74;98.25;98854.14;111177;1269;22179;-74
2023/12/13 04:34:58;;;;;;;33.60;13.00;;;;;;;4.73;98.24;98855.71;111193;1264;22223;-74
2023/12/13 04:37:49;;;;;;;37.60;13.70;;;;;;;4.72;98.29;98855.66;111210;1264;22202;-76
2023/12/13 04:40:40;;;;;;;32.50;12.00;;;;;;;4.73;98.38;98856.02;111193;1266;22290;-75
2023/12/13 04:43:31;;;;;;;32.90;12.40;;;;;;;4.72;98.38;98855.36;111175;1264;22712;-74
2023/12/13 04:46:22;;;;;;;32.30;12.60;;;;;;;4.71;98.39;98854.92;111145;1264;22222;-77
2023/12/13 04:49:13;;;;;;;36.20;13.40;;;;;;;4.72;98.47;98848.27;111260;1263;22950;-73
2023/12/13 04:52:04;;;;;;;34.10;12.80;;;;;;;4.74;98.55;98843.58;111272;1269;22191;-74
2023/12/13 04:54:55;;;;;;;36.20;13.20;;;;;;;4.73;98.50;98836.92;109782;1270;24355;-73
2023/12/13 04:57:46;;;;;;;36.00;13.20;;;;;;;4.72;98.49;98830.65;108254;1270;23773;-74
2023/12/13 05:00:37;;;;;;;37.90;13.20;;;;;;;4.72;98.59;98828.27;108603;1269;22651;-73
2023/12/13 05:03:29;;;;;;;38.10;14.10;;;;;;;4.74;98.71;98828.49;108833;1266;22551;-73
2023/12/13 05:06:20;;;;;;;36.20;13.10;;;;;;;4.76;98.74;98828.59;108682;1261;24374;-73
2023/12/13 05:09:11;;;;;;;33.00;13.40;;;;;;;4.77;98.73;98823.92;108512;1269;22555;-75
2023/12/13 05:12:02;;;;;;;34.10;12.40;;;;;;;4.76;98.79;98817.47;108584;1263;24640;-73
2023/12/13 05:14:53;;;;;;;36.00;11.60;;;;;;;4.75;98.80;98810.33;108460;1258;25349;-74
2023/12/13 05:17:44;;;;;;;33.40;12.10;;;;;;;4.75;99.01;98811.13;108617;1266;23885;-74
2023/12/13 05:20:35;;;;;;;34.60;12.80;;;;;;;4.75;98.95;98808.15;108481;1266;22527;-74
2023/12/13 05:23:27;;;;;;;25.90;11.70;;;;;;;4.74;98.96;98811.65;108552;1263;25319;-74
2023/12/13 05:26:18;;;;;;;32.30;12.00;;;;;;;4.73;99.07;98811.09;108429;1254;24269;-73
2023/12/13 05:29:10;;;;;;;31.20;11.40;;;;;;;4.74;99.14;98813.41;108585;1247;22583;-73
2023/12/13 05:32:01;;;;;;;36.80;12.00;;;;;;;4.74;99.20;98812.61;108641;1257;23366;-73
2023/12/13 05:34:52;;;;;;;31.70;12.80;;;;;;;4.74;99.26;98806.52;108828;1266;22547;-75
2023/12/13 05:37:43;;;;;;;46.60;18.20;;;;;;;4.74;99.32;98805.63;108574;1267;25940;-73
2023/12/13 05:40:34;;;;;;;57.00;22.30;;;;;;;4.75;99.43;98803.98;109040;1264;22538;-75
2023/12/13 05:43:25;;;;;;;39.30;15.20;;;;;;;4.76;99.45;98797.16;109359;1262;22962;-75
2023/12/13 05:46:16;;;;;;;31.00;11.20;;;;;;;4.78;99.57;98798.41;109241;1263;23250;-75
2023/12/13 05:49:07;;;;;;;35.60;12.20;;;;;;;4.79;99.59;98792.11;109222;1269;22693;-76
2023/12/13 05:51:58;;;;;;;37.90;14.30;;;;;;;4.80;99.57;98785.89;108947;1267;23396;-74
2023/12/13 05:54:49;;;;;;;34.50;12.00;;;;;;;4.81;99.67;98789.81;109430;1270;24390;-75
2023/12/13 05:57:40;;;;;;;31.30;11.90;;;;;;;4.82;99.70;98783.91;109197;1266;22750;-76
2023/12/13 06:00:34;;;;;;;37.60;12.70;;;;;;;4.83;99.71;98781.56;109322;1269;22599;-74
2023/12/13 06:03:25;;;;;;;37.10;12.40;;;;;;;4.84;99.75;98779.13;109159;1269;22543;-74
2023/12/13 06:06:16;;;;;;;29.20;10.30;;;;;;;4.84;99.80;98789.39;109390;1269;22551;-76
2023/12/13 06:09:09;;;;;;;34.00;11.10;;;;;;;4.85;99.91;98798.84;109026;1263;22658;-74
2023/12/13 06:12:02;;;;;;;29.70;10.80;;;;;;;4.85;99.98;98799.21;109151;1269;22527;-74
2023/12/13 06:14:58;;;;;;;27.60;9.60;;;;;;;4.86;100.00;98793.23;108794;1267;23047;-75
2023/12/13 06:17:49;;;;;;;27.40;9.70;;;;;;;4.88;100.00;98785.98;109336;1264;22522;-76
2023/12/13 06:20:40;;;;;;;32.70;10.20;;;;;;;4.88;100.00;98783.02;109348;1257;25597;-73
2023/12/13 06:23:31;;;;;;;25.40;9.30;;;;;;;4.90;100.00;98777.41;109399;1265;23450;-75
2023/12/13 06:26:22;;;;;;;31.20;9.50;;;;;;;4.91;100.00;98777.59;109312;1265;22604;-75
2023/12/13 06:29:13;;;;;;;31.60;9.90;;;;;;;4.91;100.00;98775.98;109105;1266;23368;-75
2023/12/13 06:32:05;;;;;;;30.90;9.10;;;;;;;4.92;100.00;98781.73;109061;1268;24343;-76
2023/12/13 06:34:56;;;;;;;31.70;10.40;;;;;;;4.91;100.00;98773.37;108770;1267;22521;-75
2023/12/13 06:37:47;;;;;;;32.20;9.30;;;;;;;4.92;100.00;98769.77;109344;1266;24295;-75
2023/12/13 06:40:38;;;;;;;26.20;8.50;;;;;;;4.93;100.00;98778.08;109154;1269;23385;-75
2023/12/13 06:43:29;;;;;;;26.40;9.60;;;;;;;4.94;100.00;98781.61;108821;1269;26017;-74
2023/12/13 06:46:22;;;;;;;26.00;8.40;;;;;;;4.97;100.00;98783.91;109009;1264;24018;-76
2023/12/13 06:49:13;;;;;;;26.10;9.40;;;;;;;4.98;100.00;98787.32;109140;1264;27118;-75
2023/12/13 06:52:04;;;;;;;24.90;8.80;;;;;;;5.00;100.00;98784.47;109078;1254;22540;-75
2023/12/13 06:54:56;;;;;;;24.00;8.60;;;;;;;5.01;100.00;98776.66;108978;1270;22535;-75
2023/12/13 06:57:47;;;;;;;25.90;10.10;;;;;;;5.05;100.00;98784.37;108412;1270;24316;-76
2023/12/13 07:00:38;;;;;;;22.70;8.20;;;;;;;5.07;100.00;98788.18;108803;1270;22527;-74
2023/12/13 07:03:29;;;;;;;29.10;9.10;;;;;;;5.08;100.00;98782.77;109587;1267;25243;-74
2023/12/13 07:06:20;;;;;;;25.70;9.40;;;;;;;5.09;100.00;98780.87;109071;1268;22554;-75
2023/12/13 07:09:18;;;;;;;30.70;10.50;;;;;;;5.10;100.00;98779.39;108786;1266;22556;-75
2023/12/13 07:12:09;;;;;;;28.70;9.90;;;;;;;5.11;100.00;98777.23;108902;1266;22556;-73
2023/12/13 07:15:00;;;;;;;24.30;9.00;;;;;;;5.11;100.00;98782.25;108867;1264;22930;-76
2023/12/13 07:17:52;;;;;;;28.90;9.40;;;;;;;5.11;100.00;98780.90;109247;1268;24184;-75
2023/12/13 07:20:43;;;;;;;26.20;10.20;;;;;;;5.11;100.00;98779.18;108589;1264;22567;-75
2023/12/13 07:23:35;;;;;;;26.30;9.50;;;;;;;5.12;100.00;98769.84;109079;1268;25239;-74
2023/12/13 07:26:26;;;;;;;30.40;10.50;;;;;;;5.12;100.00;98771.00;109605;1267;22603;-75
2023/12/13 07:29:17;;;;;;;37.70;12.50;;;;;;;5.13;100.00;98774.98;109145;1261;24228;-76
2023/12/13 07:32:09;;;;;;;29.30;11.20;;;;;;;5.15;100.00;98780.48;109412;1261;22563;-77
2023/12/13 07:35:00;;;;;;;28.60;10.90;;;;;;;5.18;100.00;98779.07;109383;1267;25661;-74
2023/12/13 07:37:51;;;;;;;31.80;12.00;;;;;;;5.20;100.00;98781.23;109220;1266;22577;-74
2023/12/13 07:40:44;;;;;;;28.00;10.50;;;;;;;5.22;100.00;98777.16;109462;1254;22548;-75
2023/12/13 07:43:35;;;;;;;27.20;8.90;;;;;;;5.24;100.00;98777.95;109300;1268;22549;-74
2023/12/13 07:46:26;;;;;;;24.80;9.90;;;;;;;5.24;100.00;98772.16;109539;1260;24355;-74
2023/12/13 07:49:18;;;;;;;26.10;9.90;;;;;;;5.25;100.00;98765.55;109546;1268;25440;-74
2023/12/13 07:52:09;;;;;;;29.40;10.30;;;;;;;5.28;100.00;98761.36;109349;1260;25360;-76
2023/12/13 07:55:00;;;;;;;31.30;11.30;;;;;;;5.30;100.00;98761.50;109505;1257;22566;-75
2023/12/13 07:57:52;;;;;;;31.00;13.10;;;;;;;5.31;100.00;98762.27;109277;1269;22556;-74
2023/12/13 08:00:43;;;;;;;35.00;15.10;;;;;;;5.33;100.00;98760.44;109448;1269;22587;-74
2023/12/13 08:03:34;;;;;;;31.60;13.10;;;;;;;5.34;100.00;98763.64;109500;1268;22551;-76
2023/12/13 08:06:26;;;;;;;32.60;12.60;;;;;;;5.36;100.00;98762.66;109570;1257;23327;-75
2023/12/13 08:09:18;;;;;;;30.80;15.40;;;;;;;5.38;100.00;98755.73;109441;1266;25344;-74
2023/12/13 08:12:10;;;;;;;28.70;12.40;;;;;;;5.40;100.00;98754.66;109551;1263;22609;-74
2023/12/13 08:15:01;;;;;;;30.30;12.60;;;;;;;5.43;100.00;98753.35;109556;1261;23115;-74
2023/12/13 08:17:53;;;;;;;35.20;11.50;;;;;;;5.46;100.00;98750.48;109255;1261;22590;-75
2023/12/13 08:20:44;;;;;;;30.00;11.70;;;;;;;5.47;100.00;98752.52;109551;1268;23010;-74
2023/12/13 08:23:35;;;;;;;28.90;10.90;;;;;;;5.49;100.00;98752.40;108936;1264;24158;-77
2023/12/13 08:26:26;;;;;;;30.10;12.10;;;;;;;5.51;100.00;98759.17;109448;1267;22541;-75
2023/12/13 08:29:18;;;;;;;28.60;11.10;;;;;;;5.54;100.00;98755.70;109535;1268;23321;-76
2023/12/13 08:32:09;;;;;;;29.80;11.00;;;;;;;5.56;100.00;98754.02;109533;1257;25208;-76
2023/12/13 08:35:00;;;;;;;31.90;12.20;;;;;;;5.58;100.00;98755.55;109528;1265;23070;-77
2023/12/13 08:37:51;;;;;;;33.90;11.10;;;;;;;5.61;100.00;98757.41;109338;1268;23253;-75
2023/12/13 08:40:43;;;;;;;33.90;11.80;;;;;;;5.64;100.00;98755.83;109531;1268;22567;-75
2023/12/13 08:43:34;;;;;;;32.90;11.10;;;;;;;5.66;100.00;98753.60;109423;1261;22866;-76
2023/12/13 08:46:25;;;;;;;30.70;12.30;;;;;;;5.69;100.00;98753.60;109588;1253;22562;-75
2023/12/13 08:49:16;;;;;;;34.00;11.00;;;;;;;5.68;100.00;98756.55;109555;1268;26193;-75
2023/12/13 08:52:08;;;;;;;30.40;11.90;;;;;;;5.68;100.00;98750.91;109504;1268;26168;-75
2023/12/13 08:54:59;;;;;;;29.10;11.30;;;;;;;5.69;100.00;98751.33;109404;1269;22554;-74
2023/12/13 08:57:50;;;;;;;31.70;11.30;;;;;;;5.71;100.00;98750.06;109259;1269;22666;-75
2023/12/13 09:00:41;;;;;;;32.70;12.60;;;;;;;5.74;100.00;98747.77;109444;1269;22641;-74
2023/12/13 09:03:32;;;;;;;33.40;11.90;;;;;;;5.76;100.00;98751.27;109556;1268;25303;-74
2023/12/13 09:06:23;;;;;;;36.50;13.10;;;;;;;5.80;100.00;98747.14;109572;1263;22582;-75
2023/12/13 09:09:14;;;;;;;35.10;13.60;;;;;;;5.83;100.00;98745.77;109514;1263;22549;-76
2023/12/13 09:12:06;;;;;;;29.30;11.80;;;;;;;5.85;100.00;98751.89;109596;1268;22549;-75
2023/12/13 09:14:57;;;;;;;33.00;12.20;;;;;;;5.89;100.00;98749.26;109597;1268;22559;-74
2023/12/13 09:17:49;;;;;;;31.80;12.50;;;;;;;5.91;100.00;98751.91;109523;1265;22552;-76
2023/12/13 09:20:41;;;;;;;32.80;11.90;;;;;;;5.92;100.00;98752.68;109562;1247;22558;-75
2023/12/13 09:23:36;;;;;;;29.80;11.00;;;;;;;5.93;100.00;98752.39;109517;1263;22654;-74
2023/12/13 09:26:26;;;;;;;30.50;11.00;;;;;;;5.97;100.00;98756.13;109502;1268;22547;-76
2023/12/13 09:29:19;;;;;;;29.90;11.90;;;;;;;6.01;100.00;98756.89;109603;1261;22556;-75
2023/12/13 09:32:12;;;;;;;33.10;12.80;;;;;;;6.03;100.00;98754.59;109556;1268;22988;-75
2023/12/13 09:35:04;;;;;;;33.50;11.60;;;;;;;6.04;100.00;98752.13;109536;1261;25291;-75
2023/12/13 09:37:55;;;;;;;31.20;11.30;;;;;;;6.07;100.00;98746.84;109612;1263;25326;-74
2023/12/13 09:40:48;;;;;;;37.90;12.10;;;;;;;6.10;100.00;98748.85;109554;1266;22555;-75
2023/12/13 09:43:42;;;;;;;27.00;10.40;;;;;;;6.12;100.00;98754.71;109585;1268;22551;-75
2023/12/13 09:46:33;;;;;;;32.40;12.00;;;;;;;6.12;99.99;98752.89;109542;1260;23308;-74
2023/12/13 09:49:26;;;;;;;36.00;12.00;;;;;;;6.13;100.00;98747.41;109633;1253;22548;-75
2023/12/13 09:52:19;;;;;;;32.10;13.00;;;;;;;6.14;100.00;98747.63;109450;1268;22619;-76
2023/12/13 09:55:11;;;;;;;33.00;14.20;;;;;;;6.13;99.95;98748.83;109608;1260;23419;-76
2023/12/13 09:58:02;;;;;;;34.60;13.10;;;;;;;6.14;99.98;98743.80;109543;1268;24195;-75
2023/12/13 10:00:54;;;;;;;36.80;15.30;;;;;;;6.16;99.96;98738.54;109602;1268;22614;-75
2023/12/13 10:03:45;;;;;;;36.30;14.20;;;;;;;6.18;99.99;98741.19;109373;1269;22593;-75
2023/12/13 10:06:38;;;;;;;38.40;15.30;;;;;;;6.21;100.00;98739.76;109394;1269;23446;-75
2023/12/13 10:09:30;;;;;;;39.00;14.10;;;;;;;6.25;99.98;98739.40;108874;1266;22524;-74
2023/12/13 10:12:21;;;;;;;32.80;15.20;;;;;;;6.28;100.00;98733.80;111383;1261;22348;-75
2023/12/13 10:15:13;;;;;;;34.20;13.60;;;;;;;6.31;99.99;98729.05;111482;1266;22174;-74
2023/12/13 10:18:05;;;;;;;37.20;15.70;;;;;;;6.34;99.98;98730.84;111420;1256;22460;-76
2023/12/13 10:20:55;;;;;;;34.10;12.50;;;;;;;6.38;100.00;98724.64;111395;1265;22156;-75
2023/12/13 10:23:47;;;;;;;36.60;15.00;;;;;;;6.39;99.98;98724.30;111413;1253;22160;-75
2023/12/13 10:26:40;;;;;;;34.40;15.00;;;;;;;6.43;99.99;98722.22;111428;1265;22128;-75
2023/12/13 10:29:30;;;;;;;40.30;16.30;;;;;;;6.45;99.91;98721.25;111408;1266;22672;-75
2023/12/13 10:32:22;;;;;;;37.30;14.20;;;;;;;6.48;99.93;98719.20;111418;1268;22205;-75
2023/12/13 10:35:13;;;;;;;36.80;15.60;;;;;;;6.48;99.98;98718.61;111319;1268;22193;-76
2023/12/13 10:38:06;;;;;;;37.80;16.50;;;;;;;6.50;100.00;98713.58;111422;1261;22145;-74
2023/12/13 10:40:57;;;;;;;39.10;17.70;;;;;;;6.52;100.00;98709.36;111376;1266;22115;-75
2023/12/13 10:43:49;;;;;;;46.40;17.40;;;;;;;6.54;100.00;98709.89;111429;1264;22170;-76
2023/12/13 10:46:46;;;;;;;39.90;16.70;;;;;;;6.56;100.00;98702.55;111420;1260;22140;-76
2023/12/13 10:49:41;;;;;;;32.70;16.20;;;;;;;6.58;100.00;98698.78;111419;1265;22164;-75
2023/12/13 10:52:33;;;;;;;37.70;16.40;;;;;;;6.60;100.00;98698.30;111400;1266;22299;-74
2023/12/13 10:55:25;;;;;;;32.50;15.50;;;;;;;6.62;100.00;98701.80;111396;1260;23150;-76
2023/12/13 10:58:19;;;;;;;38.80;16.30;;;;;;;6.63;100.00;98699.84;111423;1261;22338;-75
2023/12/13 11:01:10;;;;;;;38.80;15.70;;;;;;;6.64;100.00;98698.45;111420;1261;24326;-76
2023/12/13 11:04:06;;;;;;;42.50;16.50;;;;;;;6.64;100.00;98699.46;111401;1268;22148;-75
2023/12/13 11:07:04;;;;;;;33.60;15.50;;;;;;;6.64;100.00;98697.30;111255;1263;22743;-75
2023/12/13 11:09:56;;;;;;;41.00;16.90;;;;;;;6.63;100.00;98693.84;111251;1269;22226;-75
2023/12/13 11:12:52;;;;;;;37.50;18.60;;;;;;;6.61;100.00;98689.84;111221;1269;22195;-75
2023/12/13 11:15:46;;;;;;;41.60;19.10;;;;;;;6.59;100.00;98693.50;111424;1268;22137;-76
2023/12/13 11:18:37;;;;;;;40.80;18.10;;;;;;;6.59;100.00;98694.47;111146;1269;22161;-75
2023/12/13 11:21:30;;;;;;;40.90;18.40;;;;;;;6.58;100.00;98693.94;111394;1258;22150;-75
2023/12/13 11:24:25;;;;;;;40.00;17.80;;;;;;;6.58;100.00;98692.94;111396;1262;22132;-74
2023/12/13 11:27:20;;;;;;;36.70;17.20;;;;;;;6.56;100.00;98695.44;111377;1263;22204;-75
2023/12/13 11:30:16;;;;;;;38.60;18.60;;;;;;;6.52;100.00;98693.84;111430;1267;22165;-75
2023/12/13 11:33:15;;;;;;;42.50;21.40;;;;;;;6.50;100.00;98693.78;111392;1253;22233;-75
2023/12/13 11:36:13;;;;;;;41.70;20.70;;;;;;;6.48;100.00;98687.66;111436;1266;22089;-75
2023/12/13 11:39:07;;;;;;;39.50;20.40;;;;;;;6.46;100.00;98688.45;111480;1267;22822;-77
2023/12/13 11:42:04;;;;;;;43.30;20.30;;;;;;;6.42;100.00;98689.77;111400;1253;22163;-75
2023/12/13 11:44:55;;;;;;;44.10;19.80;;;;;;;6.40;100.00;98687.12;111429;1266;22109;-76
2023/12/13 11:47:49;;;;;;;40.90;19.30;;;;;;;6.39;100.00;98683.02;111444;1267;22183;-76
2023/12/13 11:50:40;;;;;;;42.00;19.60;;;;;;;6.37;100.00;98687.69;111441;1262;22167;-77
2023/12/13 11:53:30;;;;;;;43.50;21.00;;;;;;;6.37;100.00;98687.23;111433;1253;22322;-75
2023/12/13 11:56:22;;;;;;;45.30;21.20;;;;;;;6.37;100.00;98687.23;111417;1266;22135;-75
2023/12/13 11:59:13;;;;;;;41.00;20.10;;;;;;;6.38;100.00;98690.48;111452;1265;22207;-76
2023/12/13 12:02:06;;;;;;;42.10;19.70;;;;;;;6.39;100.00;98689.83;111409;1265;22210;-76
2023/12/13 12:04:57;;;;;;;48.70;22.00;;;;;;;6.40;100.00;98684.99;111407;1262;22210;-76
2023/12/13 12:07:59;;;;;;;48.20;23.20;;;;;;;6.41;100.00;98688.34;111409;1262;22474;-76
2023/12/13 12:10:48;;;;;;;;;;;;;;;6.45;100.00;98686.02;111250;1258;22381;-77
2023/12/13 12:13:43;;;;;;;40.40;18.60;;;;;;;6.48;100.00;98683.02;111417;1268;23265;-76
2023/12/13 12:16:34;;;;;;;44.40;20.40;;;;;;;6.49;100.00;98681.36;111388;1264;23108;-76
2023/12/13 12:19:27;;;;;;;48.90;24.10;;;;;;;6.50;100.00;98680.72;111414;1261;22175;-76
2023/12/13 12:22:19;;;;;;;45.40;23.80;;;;;;;6.52;100.00;98677.77;111451;1268;22363;-76
2023/12/13 12:25:12;;;;;;;42.60;19.80;;;;;;;6.54;100.00;98676.98;111396;1260;22276;-76
2023/12/13 12:28:05;;;;;;;43.50;20.40;;;;;;;6.56;100.00;98680.21;111436;1268;22907;-75
2023/12/13 12:30:56;;;;;;;43.10;21.00;;;;;;;6.58;100.00;98671.98;111431;1268;22933;-75
2023/12/13 12:33:55;;;;;;;42.30;20.80;;;;;;;6.59;100.00;98668.20;111428;1268;22648;-76
2023/12/13 12:36:46;;;;;;;40.90;21.30;;;;;;;6.63;100.00;98667.22;111455;1257;22137;-76
2023/12/13 12:39:37;;;;;;;39.20;18.10;;;;;;;6.63;100.00;98665.11;111220;1269;22227;-76
2023/12/13 12:42:28;;;;;;;42.50;20.40;;;;;;;6.66;100.00;98667.71;111392;1263;22186;-77
2023/12/13 12:45:19;;;;;;;40.80;18.90;;;;;;;6.68;100.00;98669.65;111430;1268;22147;-76
2023/12/13 12:48:10;;;;;;;40.60;20.90;;;;;;;6.70;100.00;98669.83;111375;1265;22169;-77
2023/12/13 12:51:01;;;;;;;47.90;26.10;;;;;;;6.74;100.00;98674.84;111421;1257;22127;-77
2023/12/13 12:53:52;;;;;;;52.80;30.10;;;;;;;6.76;100.00;98674.06;111410;1265;23362;-77
2023/12/13 12:56:43;;;;;;;51.90;28.90;;;;;;;6.78;100.00;98668.79;111410;1262;22131;-76
2023/12/13 12:59:34;;;;;;;51.10;28.10;;;;;;;6.78;100.00;98670.45;111429;1263;22216;-77
2023/12/13 13:02:25;;;;;;;55.90;32.90;;;;;;;6.77;100.00;98674.32;111396;1265;22100;-76
2023/12/13 13:05:16;;;;;;;56.40;31.80;;;;;;;6.77;100.00;98676.98;111402;1268;22140;-75